Integrity — WDF4881 — position and weather

sailwx.info

Track history (hours):
 
Tides and Currents Weather Stations Pressure Air Temp Water Temp Dewpoint Dewpoint Depression Visibility Wind Speed Wind Dir Waves Ship Positions

Integrity

Owner: Canal Barge Company, Inc., Belle Chasse, LA. More information available from US FCC via Universal Licensing System and Coast Guard Vessel Documentation Center.

Last reported at 2017-Nov-17 05:10 UTC. Time now 2017-Nov-18 08:52 UTC.
Position N 29°44' W 095°03'.

Length 19 m; draft 2.8 m.

Type: Towing. MMSI: 367456830.

Date/timePositionNaut miles runAvg speedWind from/ knotsBaromVisibWave heightAir tempDewpointWater temp
2017-Nov-17 05:10N 29°44' W 095°03'0 0.4
2017-Nov-17 04:45N 29°44' W 095°03'0 0.0
2017-Nov-16 12:11N 29°44' W 095°03'0 0.0
2017-Nov-16 11:53N 29°44' W 095°03'0 0.0
2017-Nov-16 11:30N 29°44' W 095°03'0 0.0
2017-Nov-16 11:00N 29°44' W 095°03'0 0.1
2017-Nov-16 10:30N 29°44' W 095°03'2 3.5
2017-Nov-16 09:54N 29°43' W 095°01'1 3.0
2017-Nov-16 09:30N 29°42' W 095°03'0 0.5
2017-Nov-16 09:00N 29°42' W 095°03'0 0.0
2017-Nov-16 08:30N 29°42' W 095°03'0 0.0
2017-Nov-16 08:00N 29°42' W 095°03'0 0.0
2017-Nov-16 07:30N 29°42' W 095°03'0 0.0
2017-Nov-16 07:00N 29°42' W 095°03'0 0.0
2017-Nov-16 06:28N 29°42' W 095°03'0 0.0
2017-Nov-16 05:58N 29°42' W 095°03'0 0.0
2017-Nov-16 05:30N 29°42' W 095°03'0 0.0
2017-Nov-16 05:00N 29°42' W 095°03'0 0.0
2017-Nov-16 04:30N 29°42' W 095°03'0 0.0
2017-Nov-16 04:00N 29°42' W 095°03'0 0.0
2017-Nov-16 03:30N 29°42' W 095°03'0 0.0
2017-Nov-16 03:00N 29°42' W 095°03'0 0.0
2017-Nov-16 02:30N 29°42' W 095°03'0 0.0
2017-Nov-16 02:00N 29°42' W 095°03'0 0.0
2017-Nov-16 01:30N 29°42' W 095°03'0 0.0
2017-Nov-16 01:00N 29°42' W 095°03'0 0.0
2017-Nov-16 00:30N 29°42' W 095°03'0 0.0
2017-Nov-16 00:00N 29°42' W 095°03'0 0.0
2017-Nov-15 23:30N 29°42' W 095°03'0 0.0
2017-Nov-15 22:58N 29°42' W 095°03'0 0.0
2017-Nov-15 22:30N 29°42' W 095°03'0 0.0
2017-Nov-15 22:00N 29°42' W 095°03'0 0.0
2017-Nov-15 21:30N 29°42' W 095°03'0 0.1
2017-Nov-15 20:32N 29°42' W 095°03'0 1.1
2017-Nov-15 20:31N 29°42' W 095°03'0 0.0
2017-Nov-15 19:46N 29°42' W 095°03'0 0.1
2017-Nov-15 19:30N 29°42' W 095°03'0 0.0
2017-Nov-15 19:00N 29°42' W 095°03'0 0.0
2017-Nov-15 18:28N 29°42' W 095°03'0 0.0
2017-Nov-15 17:59N 29°42' W 095°03'0 0.0
2017-Nov-15 17:28N 29°42' W 095°03'0 0.2
2017-Nov-15 16:56N 29°42' W 095°03'0 0.2
2017-Nov-15 16:24N 29°42' W 095°03'0 0.0
2017-Nov-15 15:57N 29°42' W 095°03'0 0.0
2017-Nov-15 15:30N 29°42' W 095°03'0 0.0
2017-Nov-15 15:00N 29°42' W 095°03'0 0.0
2017-Nov-15 14:30N 29°42' W 095°03'0 0.0
2017-Nov-15 13:59N 29°42' W 095°03'0 0.0
2017-Nov-15 13:30N 29°42' W 095°03'0 0.0
2017-Nov-15 13:00N 29°42' W 095°03'0 0.0
2017-Nov-15 12:30N 29°42' W 095°03'1 2.7
2017-Nov-15 12:00N 29°42' W 095°01'3 5.1
2017-Nov-15 11:30N 29°44' W 095°03'3 5.3
2017-Nov-15 11:00N 29°46' W 095°05'1 0.6
2017-Nov-15 10:09N 29°47' W 095°04'1 3.4
2017-Nov-15 09:52N 29°46' W 095°05'2 4.4
2017-Nov-15 09:30N 29°45' W 095°06'0 0.1
2017-Nov-15 08:59N 29°45' W 095°06'0 0.0
2017-Nov-15 08:30N 29°45' W 095°06'0 0.0
2017-Nov-15 08:00N 29°45' W 095°06'0 0.0
2017-Nov-15 07:27N 29°45' W 095°06'0 0.0
2017-Nov-15 06:55N 29°45' W 095°06'0 0.0
2017-Nov-15 06:28N 29°45' W 095°06'0 0.0
2017-Nov-15 04:03N 29°45' W 095°06'0 0.0
2017-Nov-15 03:59N 29°45' W 095°06'0 0.0
2017-Nov-15 03:12N 29°45' W 095°06'0 0.0
2017-Nov-15 02:57N 29°45' W 095°06'0 0.0
2017-Nov-15 01:30N 29°45' W 095°06'0 0.0
2017-Nov-14 22:04N 29°45' W 095°06'0 0.0
2017-Nov-14 21:46N 29°45' W 095°06'0 0.0
2017-Nov-14 18:15N 29°45' W 095°06'0 0.0
2017-Nov-14 16:48N 29°45' W 095°06'4 1.2
2017-Nov-14 13:37N 29°44' W 095°02'1 4.2
2017-Nov-14 13:20N 29°43' W 095°01'1 2.8
2017-Nov-14 13:00N 29°42' W 095°02'1 1.0
2017-Nov-14 12:26N 29°42' W 095°03'0 0.1
2017-Nov-14 12:00N 29°42' W 095°03'0 0.0
2017-Nov-14 11:27N 29°42' W 095°03'0 0.0
2017-Nov-14 11:00N 29°42' W 095°03'0 0.0
2017-Nov-14 10:30N 29°42' W 095°03'0 0.0
2017-Nov-14 09:56N 29°42' W 095°03'0 0.0
2017-Nov-14 09:30N 29°42' W 095°03'0 0.0
2017-Nov-14 09:00N 29°42' W 095°03'0 0.0
2017-Nov-14 08:30N 29°42' W 095°03'0 0.0
2017-Nov-14 08:00N 29°42' W 095°03'0 0.0
2017-Nov-14 07:30N 29°42' W 095°03'0 0.0
2017-Nov-14 07:00N 29°42' W 095°03'0 0.0
2017-Nov-14 06:30N 29°42' W 095°03'0 0.0
2017-Nov-14 06:00N 29°42' W 095°03'0 0.0
2017-Nov-14 05:30N 29°42' W 095°03'0 0.0
2017-Nov-14 05:00N 29°42' W 095°03'0 0.0
2017-Nov-14 04:30N 29°42' W 095°03'0 0.0
2017-Nov-14 04:00N 29°42' W 095°03'0 0.0
2017-Nov-14 03:30N 29°42' W 095°03'0 0.0
2017-Nov-14 03:00N 29°42' W 095°03'0 0.0
2017-Nov-14 02:30N 29°42' W 095°03'0 0.0
2017-Nov-14 01:59N 29°42' W 095°03'0 0.0
2017-Nov-14 01:29N 29°42' W 095°03'0 0.0
2017-Nov-14 00:56N 29°42' W 095°03'0 0.0
2017-Nov-14 00:30N 29°42' W 095°03'0 0.0
2017-Nov-13 23:59N 29°42' W 095°03'0 0.0
2017-Nov-13 23:30N 29°42' W 095°03'0 0.0
2017-Nov-13 22:59N 29°42' W 095°03'0 0.0
2017-Nov-13 22:30N 29°42' W 095°03'0 0.0
2017-Nov-13 22:00N 29°42' W 095°03'  
Track history (hours):
 
Tides and Currents Weather Stations Pressure Air Temp Water Temp Dewpoint Dewpoint Depression Visibility Wind Speed Wind Dir Waves Ship Positions

Integrity

Owner: Canal Barge Company, Inc., Belle Chasse, LA. More information available from US FCC via Universal Licensing System and Coast Guard Vessel Documentation Center.

Last reported at 2017-Nov-17 05:10 UTC. Time now 2017-Nov-18 08:52 UTC.
Position N 29°44' W 095°03'.

Length 19 m; draft 2.8 m.

Type: Towing. MMSI: 367456830.

Date/timePositionNaut miles runAvg speedWind from/ knotsBaromVisibWave heightAir tempDewpointWater temp
2017-Nov-17 05:10N 29°44' W 095°03'0 0.4
2017-Nov-17 04:45N 29°44' W 095°03'0 0.0
2017-Nov-16 12:11N 29°44' W 095°03'0 0.0
2017-Nov-16 11:53N 29°44' W 095°03'0 0.0
2017-Nov-16 11:30N 29°44' W 095°03'0 0.0
2017-Nov-16 11:00N 29°44' W 095°03'0 0.1
2017-Nov-16 10:30N 29°44' W 095°03'2 3.5
2017-Nov-16 09:54N 29°43' W 095°01'1 3.0
2017-Nov-16 09:30N 29°42' W 095°03'0 0.5
2017-Nov-16 09:00N 29°42' W 095°03'0 0.0
2017-Nov-16 08:30N 29°42' W 095°03'0 0.0
2017-Nov-16 08:00N 29°42' W 095°03'0 0.0
2017-Nov-16 07:30N 29°42' W 095°03'0 0.0
2017-Nov-16 07:00N 29°42' W 095°03'0 0.0
2017-Nov-16 06:28N 29°42' W 095°03'0 0.0
2017-Nov-16 05:58N 29°42' W 095°03'0 0.0
2017-Nov-16 05:30N 29°42' W 095°03'0 0.0
2017-Nov-16 05:00N 29°42' W 095°03'0 0.0
2017-Nov-16 04:30N 29°42' W 095°03'0 0.0
2017-Nov-16 04:00N 29°42' W 095°03'0 0.0
2017-Nov-16 03:30N 29°42' W 095°03'0 0.0
2017-Nov-16 03:00N 29°42' W 095°03'0 0.0
2017-Nov-16 02:30N 29°42' W 095°03'0 0.0
2017-Nov-16 02:00N 29°42' W 095°03'0 0.0
2017-Nov-16 01:30N 29°42' W 095°03'0 0.0
2017-Nov-16 01:00N 29°42' W 095°03'0 0.0
2017-Nov-16 00:30N 29°42' W 095°03'0 0.0
2017-Nov-16 00:00N 29°42' W 095°03'0 0.0
2017-Nov-15 23:30N 29°42' W 095°03'0 0.0
2017-Nov-15 22:58N 29°42' W 095°03'0 0.0
2017-Nov-15 22:30N 29°42' W 095°03'0 0.0
2017-Nov-15 22:00N 29°42' W 095°03'0 0.0
2017-Nov-15 21:30N 29°42' W 095°03'0 0.1
2017-Nov-15 20:32N 29°42' W 095°03'0 1.1
2017-Nov-15 20:31N 29°42' W 095°03'0 0.0
2017-Nov-15 19:46N 29°42' W 095°03'0 0.1
2017-Nov-15 19:30N 29°42' W 095°03'0 0.0
2017-Nov-15 19:00N 29°42' W 095°03'0 0.0
2017-Nov-15 18:28N 29°42' W 095°03'0 0.0
2017-Nov-15 17:59N 29°42' W 095°03'0 0.0
2017-Nov-15 17:28N 29°42' W 095°03'0 0.2
2017-Nov-15 16:56N 29°42' W 095°03'0 0.2
2017-Nov-15 16:24N 29°42' W 095°03'0 0.0
2017-Nov-15 15:57N 29°42' W 095°03'0 0.0
2017-Nov-15 15:30N 29°42' W 095°03'0 0.0
2017-Nov-15 15:00N 29°42' W 095°03'0 0.0
2017-Nov-15 14:30N 29°42' W 095°03'0 0.0
2017-Nov-15 13:59N 29°42' W 095°03'0 0.0
2017-Nov-15 13:30N 29°42' W 095°03'0 0.0
2017-Nov-15 13:00N 29°42' W 095°03'0 0.0
2017-Nov-15 12:30N 29°42' W 095°03'1 2.7
2017-Nov-15 12:00N 29°42' W 095°01'3 5.1
2017-Nov-15 11:30N 29°44' W 095°03'3 5.3
2017-Nov-15 11:00N 29°46' W 095°05'1 0.6
2017-Nov-15 10:09N 29°47' W 095°04'1 3.4
2017-Nov-15 09:52N 29°46' W 095°05'2 4.4
2017-Nov-15 09:30N 29°45' W 095°06'0 0.1
2017-Nov-15 08:59N 29°45' W 095°06'0 0.0
2017-Nov-15 08:30N 29°45' W 095°06'0 0.0
2017-Nov-15 08:00N 29°45' W 095°06'0 0.0
2017-Nov-15 07:27N 29°45' W 095°06'0 0.0
2017-Nov-15 06:55N 29°45' W 095°06'0 0.0
2017-Nov-15 06:28N 29°45' W 095°06'0 0.0
2017-Nov-15 04:03N 29°45' W 095°06'0 0.0
2017-Nov-15 03:59N 29°45' W 095°06'0 0.0
2017-Nov-15 03:12N 29°45' W 095°06'0 0.0
2017-Nov-15 02:57N 29°45' W 095°06'0 0.0
2017-Nov-15 01:30N 29°45' W 095°06'0 0.0
2017-Nov-14 22:04N 29°45' W 095°06'0 0.0
2017-Nov-14 21:46N 29°45' W 095°06'0 0.0
2017-Nov-14 18:15N 29°45' W 095°06'0 0.0
2017-Nov-14 16:48N 29°45' W 095°06'4 1.2
2017-Nov-14 13:37N 29°44' W 095°02'1 4.2
2017-Nov-14 13:20N 29°43' W 095°01'1 2.8
2017-Nov-14 13:00N 29°42' W 095°02'1 1.0
2017-Nov-14 12:26N 29°42' W 095°03'0 0.1
2017-Nov-14 12:00N 29°42' W 095°03'0 0.0
2017-Nov-14 11:27N 29°42' W 095°03'0 0.0
2017-Nov-14 11:00N 29°42' W 095°03'0 0.0
2017-Nov-14 10:30N 29°42' W 095°03'0 0.0
2017-Nov-14 09:56N 29°42' W 095°03'0 0.0
2017-Nov-14 09:30N 29°42' W 095°03'0 0.0
2017-Nov-14 09:00N 29°42' W 095°03'0 0.0
2017-Nov-14 08:30N 29°42' W 095°03'0 0.0
2017-Nov-14 08:00N 29°42' W 095°03'0 0.0
2017-Nov-14 07:30N 29°42' W 095°03'0 0.0
2017-Nov-14 07:00N 29°42' W 095°03'0 0.0
2017-Nov-14 06:30N 29°42' W 095°03'0 0.0
2017-Nov-14 06:00N 29°42' W 095°03'0 0.0
2017-Nov-14 05:30N 29°42' W 095°03'0 0.0
2017-Nov-14 05:00N 29°42' W 095°03'0 0.0
2017-Nov-14 04:30N 29°42' W 095°03'0 0.0
2017-Nov-14 04:00N 29°42' W 095°03'0 0.0
2017-Nov-14 03:30N 29°42' W 095°03'0 0.0
2017-Nov-14 03:00N 29°42' W 095°03'0 0.0
2017-Nov-14 02:30N 29°42' W 095°03'0 0.0
2017-Nov-14 01:59N 29°42' W 095°03'0 0.0
2017-Nov-14 01:29N 29°42' W 095°03'0 0.0
2017-Nov-14 00:56N 29°42' W 095°03'0 0.0
2017-Nov-14 00:30N 29°42' W 095°03'0 0.0
2017-Nov-13 23:59N 29°42' W 095°03'0 0.0
2017-Nov-13 23:30N 29°42' W 095°03'0 0.0
2017-Nov-13 22:59N 29°42' W 095°03'0 0.0
2017-Nov-13 22:30N 29°42' W 095°03'0 0.0
2017-Nov-13 22:00N 29°42' W 095°03'  

Dump ship's entire track history